sensor_id;sensor_type;location;lat;lon;timestamp;pressure;altitude;pressure_sealevel;temperature;humidity
10706;BME280;5404;42.656;23.336;2024-01-30T00:01:15;96712.75;;;-2.31;66.39
10706;BME280;5404;42.656;23.336;2024-01-30T00:03:41;96719.22;;;-2.37;66.68
10706;BME280;5404;42.656;23.336;2024-01-30T00:06:08;96716.28;;;-2.35;65.64
10706;BME280;5404;42.656;23.336;2024-01-30T00:08:34;96714.34;;;-2.30;65.84
10706;BME280;5404;42.656;23.336;2024-01-30T00:10:59;96720.03;;;-2.37;65.63
10706;BME280;5404;42.656;23.336;2024-01-30T00:13:26;96706.66;;;-2.37;65.39
10706;BME280;5404;42.656;23.336;2024-01-30T00:15:52;96714.72;;;-2.42;66.01
10706;BME280;5404;42.656;23.336;2024-01-30T00:18:17;96721.16;;;-2.43;66.02
10706;BME280;5404;42.656;23.336;2024-01-30T00:20:44;96712.88;;;-2.46;66.23
10706;BME280;5404;42.656;23.336;2024-01-30T00:23:09;96722.53;;;-2.50;66.50
10706;BME280;5404;42.656;23.336;2024-01-30T00:25:35;96719.63;;;-2.54;65.95
10706;BME280;5404;42.656;23.336;2024-01-30T00:28:00;96721.09;;;-2.71;67.13
10706;BME280;5404;42.656;23.336;2024-01-30T00:30:26;96722.16;;;-2.72;67.09
10706;BME280;5404;42.656;23.336;2024-01-30T00:32:51;96725.84;;;-2.63;66.76
10706;BME280;5404;42.656;23.336;2024-01-30T00:35:17;96725.84;;;-2.63;66.65
10706;BME280;5404;42.656;23.336;2024-01-30T00:37:42;96721.06;;;-2.66;67.17
10706;BME280;5404;42.656;23.336;2024-01-30T00:40:09;96726.13;;;-2.70;67.81
10706;BME280;5404;42.656;23.336;2024-01-30T00:42:43;96702.50;;;-2.82;67.25
10706;BME280;5404;42.656;23.336;2024-01-30T00:45:15;96716.75;;;-2.62;66.83
10706;BME280;5404;42.656;23.336;2024-01-30T00:47:41;96723.44;;;-2.65;66.84
10706;BME280;5404;42.656;23.336;2024-01-30T00:50:06;96712.47;;;-2.58;66.60
10706;BME280;5404;42.656;23.336;2024-01-30T00:52:32;96721.47;;;-2.49;66.43
10706;BME280;5404;42.656;23.336;2024-01-30T00:54:58;96710.06;;;-2.60;67.48
10706;BME280;5404;42.656;23.336;2024-01-30T00:57:24;96723.13;;;-2.58;67.09
10706;BME280;5404;42.656;23.336;2024-01-30T00:59:49;96730.06;;;-2.57;67.04
10706;BME280;5404;42.656;23.336;2024-01-30T01:02:15;96714.81;;;-2.52;66.34
10706;BME280;5404;42.656;23.336;2024-01-30T01:04:43;96722.25;;;-2.49;66.37
10706;BME280;5404;42.656;23.336;2024-01-30T01:07:09;96710.84;;;-2.59;66.92
10706;BME280;5404;42.656;23.336;2024-01-30T01:09:36;96706.59;;;-2.60;66.54
10706;BME280;5404;42.656;23.336;2024-01-30T01:12:02;96707.66;;;-2.61;66.67
10706;BME280;5404;42.656;23.336;2024-01-30T01:14:28;96705.59;;;-2.69;67.19
10706;BME280;5404;42.656;23.336;2024-01-30T01:16:53;96706.66;;;-2.65;67.07
10706;BME280;5404;42.656;23.336;2024-01-30T01:19:19;96708.13;;;-2.54;67.54
10706;BME280;5404;42.656;23.336;2024-01-30T01:21:44;96719.53;;;-2.78;67.86
10706;BME280;5404;42.656;23.336;2024-01-30T01:24:10;96716.41;;;-2.85;68.11
10706;BME280;5404;42.656;23.336;2024-01-30T01:26:35;96704.13;;;-2.91;67.64
10706;BME280;5404;42.656;23.336;2024-01-30T01:29:01;96721.75;;;-2.90;68.30
10706;BME280;5404;42.656;23.336;2024-01-30T01:31:26;96712.75;;;-2.99;68.55
10706;BME280;5404;42.656;23.336;2024-01-30T01:33:54;96722.09;;;-3.01;68.74
10706;BME280;5404;42.656;23.336;2024-01-30T01:36:20;96721.66;;;-3.13;68.99
10706;BME280;5404;42.656;23.336;2024-01-30T01:38:45;96715.84;;;-3.31;69.57
10706;BME280;5404;42.656;23.336;2024-01-30T01:41:11;96728.38;;;-3.31;69.74
10706;BME280;5404;42.656;23.336;2024-01-30T01:43:36;96725.44;;;-3.30;70.43
10706;BME280;5404;42.656;23.336;2024-01-30T01:46:04;96723.50;;;-3.19;69.64
10706;BME280;5404;42.656;23.336;2024-01-30T01:48:31;96724.63;;;-3.25;70.34
10706;BME280;5404;42.656;23.336;2024-01-30T01:50:57;96724.63;;;-3.25;70.33
10706;BME280;5404;42.656;23.336;2024-01-30T01:53:23;96706.53;;;-3.33;70.42
10706;BME280;5404;42.656;23.336;2024-01-30T01:55:51;96719.84;;;-3.28;70.30
10706;BME280;5404;42.656;23.336;2024-01-30T01:58:19;96721.94;;;-3.25;69.90
10706;BME280;5404;42.656;23.336;2024-01-30T02:00:45;96737.38;;;-3.17;69.69
10706;BME280;5404;42.656;23.336;2024-01-30T02:03:13;96730.94;;;-3.11;69.33
10706;BME280;5404;42.656;23.336;2024-01-30T02:05:39;96726.66;;;-3.07;69.60
10706;BME280;5404;42.656;23.336;2024-01-30T02:08:06;96726.66;;;-3.07;69.74
10706;BME280;5404;42.656;23.336;2024-01-30T02:10:32;96735.38;;;-2.96;69.88
10706;BME280;5404;42.656;23.336;2024-01-30T02:12:57;96731.38;;;-2.94;69.57
10706;BME280;5404;42.656;23.336;2024-01-30T02:15:22;96733.53;;;-2.96;70.16
10706;BME280;5404;42.656;23.336;2024-01-30T02:17:48;96733.75;;;-2.87;69.45
10706;BME280;5404;42.656;23.336;2024-01-30T02:20:13;96730.22;;;-2.78;67.98
10706;BME280;5404;42.656;23.336;2024-01-30T02:22:40;96731.72;;;-2.66;66.50
10706;BME280;5404;42.656;23.336;2024-01-30T02:25:06;96723.13;;;-2.58;66.67
10706;BME280;5404;42.656;23.336;2024-01-30T02:27:31;96722.00;;;-2.52;66.87
10706;BME280;5404;42.656;23.336;2024-01-30T02:29:56;96716.13;;;-2.49;65.49
10706;BME280;5404;42.656;23.336;2024-01-30T02:32:22;96721.16;;;-2.43;64.89
10706;BME280;5404;42.656;23.336;2024-01-30T02:34:47;96692.72;;;-2.57;64.76
10706;BME280;5404;42.656;23.336;2024-01-30T02:37:13;96726.16;;;-2.36;64.25
10706;BME280;5404;42.656;23.336;2024-01-30T02:39:38;96723.16;;;-2.29;65.60
10706;BME280;5404;42.656;23.336;2024-01-30T02:42:04;96714.56;;;-2.26;64.96
10706;BME280;5404;42.656;23.336;2024-01-30T02:44:29;96709.56;;;-2.33;64.20
10706;BME280;5404;42.656;23.336;2024-01-30T02:46:54;96721.19;;;-2.19;63.93
10706;BME280;5404;42.656;23.336;2024-01-30T02:49:20;96722.78;;;-2.18;63.52
10706;BME280;5404;42.656;23.336;2024-01-30T02:51:46;96723.31;;;-2.16;63.92
10706;BME280;5404;42.656;23.336;2024-01-30T02:54:11;96726.50;;;-2.14;63.65
10706;BME280;5404;42.656;23.336;2024-01-30T02:56:37;96718.97;;;-2.12;63.01
10706;BME280;5404;42.656;23.336;2024-01-30T02:59:02;96721.66;;;-2.12;62.65
10706;BME280;5404;42.656;23.336;2024-01-30T03:01:28;96726.44;;;-2.09;62.45
10706;BME280;5404;42.656;23.336;2024-01-30T03:03:53;96717.34;;;-2.08;62.76
10706;BME280;5404;42.656;23.336;2024-01-30T03:06:18;96712.22;;;-2.04;62.87
10706;BME280;5404;42.656;23.336;2024-01-30T03:08:45;96713.59;;;-2.07;62.38
10706;BME280;5404;42.656;23.336;2024-01-30T03:11:11;96717.84;;;-2.06;62.59
10706;BME280;5404;42.656;23.336;2024-01-30T03:13:36;96710.94;;;-2.07;63.04
10706;BME280;5404;42.656;23.336;2024-01-30T03:16:01;96718.66;;;-2.05;62.98
10706;BME280;5404;42.656;23.336;2024-01-30T03:18:27;96715.47;;;-2.07;62.49
10706;BME280;5404;42.656;23.336;2024-01-30T03:20:52;96712.28;;;-2.09;62.65
10706;BME280;5404;42.656;23.336;2024-01-30T03:23:18;96714.69;;;-2.08;63.03
10706;BME280;5404;42.656;23.336;2024-01-30T03:25:43;96697.66;;;-2.17;63.26
10706;BME280;5404;42.656;23.336;2024-01-30T03:28:08;96710.94;;;-2.07;61.67
10706;BME280;5404;42.656;23.336;2024-01-30T03:30:34;96715.16;;;-2.06;62.07
10706;BME280;5404;42.656;23.336;2024-01-30T03:33:00;96702.94;;;-2.07;61.85
10706;BME280;5404;42.656;23.336;2024-01-30T03:35:25;96699.72;;;-2.09;62.17
10706;BME280;5404;42.656;23.336;2024-01-30T03:37:50;96707.50;;;-2.12;61.83
10706;BME280;5404;42.656;23.336;2024-01-30T03:40:16;96705.94;;;-2.13;62.33
10706;BME280;5404;42.656;23.336;2024-01-30T03:42:41;96707.50;;;-2.12;61.99
10706;BME280;5404;42.656;23.336;2024-01-30T03:45:07;96704.03;;;-2.13;61.91
10706;BME280;5404;42.656;23.336;2024-01-30T03:47:32;96693.34;;;-2.13;62.25
10706;BME280;5404;42.656;23.336;2024-01-30T03:49:58;96700.59;;;-2.13;62.29
10706;BME280;5404;42.656;23.336;2024-01-30T03:52:23;96692.78;;;-2.10;62.38
10706;BME280;5404;42.656;23.336;2024-01-30T03:54:49;96697.91;;;-2.13;62.43
10706;BME280;5404;42.656;23.336;2024-01-30T03:57:14;96703.25;;;-2.13;62.61
10706;BME280;5404;42.656;23.336;2024-01-30T03:59:44;96700.06;;;-2.15;61.55
10706;BME280;5404;42.656;23.336;2024-01-30T04:02:10;96684.94;;;-2.25;61.62
10706;BME280;5404;42.656;23.336;2024-01-30T04:04:36;96702.75;;;-2.15;62.68
10706;BME280;5404;42.656;23.336;2024-01-30T04:07:02;96691.19;;;-2.11;63.39
10706;BME280;5404;42.656;23.336;2024-01-30T04:09:27;96692.97;;;-2.01;63.29
10706;BME280;5404;42.656;23.336;2024-01-30T04:11:54;96691.19;;;-2.11;63.47
10706;BME280;5404;42.656;23.336;2024-01-30T04:14:19;96691.66;;;-2.04;62.88
10706;BME280;5404;42.656;23.336;2024-01-30T04:16:44;96696.66;;;-1.97;62.78
10706;BME280;5404;42.656;23.336;2024-01-30T04:19:10;96691.56;;;-1.93;62.54
10706;BME280;5404;42.656;23.336;2024-01-30T04:21:35;96689.91;;;-1.89;62.32
10706;BME280;5404;42.656;23.336;2024-01-30T04:24:01;96698.53;;;-1.98;62.48
10706;BME280;5404;42.656;23.336;2024-01-30T04:26:26;96690.88;;;-2.04;62.75
10706;BME280;5404;42.656;23.336;2024-01-30T04:28:51;96693.53;;;-2.04;62.43
10706;BME280;5404;42.656;23.336;2024-01-30T04:31:17;96702.94;;;-2.07;61.37
10706;BME280;5404;42.656;23.336;2024-01-30T04:33:43;96705.34;;;-2.10;61.30
10706;BME280;5404;42.656;23.336;2024-01-30T04:36:09;96707.56;;;-2.17;61.42
10706;BME280;5404;42.656;23.336;2024-01-30T04:38:38;96701.19;;;-2.21;61.58
10706;BME280;5404;42.656;23.336;2024-01-30T04:41:04;96700.44;;;-2.27;61.79
10706;BME280;5404;42.656;23.336;2024-01-30T04:43:30;96703.69;;;-2.30;61.87
10706;BME280;5404;42.656;23.336;2024-01-30T04:45:55;96701.59;;;-2.38;61.76
10706;BME280;5404;42.656;23.336;2024-01-30T04:48:21;96701.13;;;-2.45;62.15
10706;BME280;5404;42.656;23.336;2024-01-30T04:50:46;96713.63;;;-2.41;62.23
10706;BME280;5404;42.656;23.336;2024-01-30T04:53:13;96715.56;;;-2.46;62.22
10706;BME280;5404;42.656;23.336;2024-01-30T04:55:39;96713.72;;;-2.51;61.62
10706;BME280;5404;42.656;23.336;2024-01-30T04:58:04;96717.75;;;-2.53;61.81
10706;BME280;5404;42.656;23.336;2024-01-30T05:00:29;96718.31;;;-2.56;62.01
10706;BME280;5404;42.656;23.336;2024-01-30T05:02:55;96737.28;;;-2.63;62.35
10706;BME280;5404;42.656;23.336;2024-01-30T05:05:22;96732.75;;;-2.62;63.30
10706;BME280;5404;42.656;23.336;2024-01-30T05:07:48;96732.56;;;-2.71;63.89
10706;BME280;5404;42.656;23.336;2024-01-30T05:10:14;96730.97;;;-2.77;65.13
10706;BME280;5404;42.656;23.336;2024-01-30T05:12:40;96727.25;;;-2.76;64.61
10706;BME280;5404;42.656;23.336;2024-01-30T05:15:05;96734.66;;;-2.68;63.33
10706;BME280;5404;42.656;23.336;2024-01-30T05:17:31;96724.72;;;-2.57;61.65
10706;BME280;5404;42.656;23.336;2024-01-30T05:19:57;96728.22;;;-2.62;61.23
10706;BME280;5404;42.656;23.336;2024-01-30T05:22:22;96734.41;;;-2.66;61.20
10706;BME280;5404;42.656;23.336;2024-01-30T05:24:47;96729.09;;;-2.71;61.17
10706;BME280;5404;42.656;23.336;2024-01-30T05:27:13;96738.44;;;-2.74;61.96
10706;BME280;5404;42.656;23.336;2024-01-30T05:29:39;96738.50;;;-2.79;60.93
10706;BME280;5404;42.656;23.336;2024-01-30T05:32:05;96731.28;;;-2.79;62.33
10706;BME280;5404;42.656;23.336;2024-01-30T05:34:31;96741.22;;;-2.89;63.52
10706;BME280;5404;42.656;23.336;2024-01-30T05:36:57;96748.22;;;-3.03;63.56
10706;BME280;5404;42.656;23.336;2024-01-30T05:39:24;96732.53;;;-3.10;63.00
10706;BME280;5404;42.656;23.336;2024-01-30T05:41:50;96742.09;;;-2.99;62.85
10706;BME280;5404;42.656;23.336;2024-01-30T05:44:15;96747.38;;;-2.94;62.67
10706;BME280;5404;42.656;23.336;2024-01-30T05:46:41;96742.59;;;-2.97;62.99
10706;BME280;5404;42.656;23.336;2024-01-30T05:49:07;96743.16;;;-3.00;63.34
10706;BME280;5404;42.656;23.336;2024-01-30T05:51:32;96741.81;;;-3.02;63.74
10706;BME280;5404;42.656;23.336;2024-01-30T05:53:57;96728.00;;;-3.09;64.25
10706;BME280;5404;42.656;23.336;2024-01-30T05:56:23;96737.81;;;-3.00;64.42
10706;BME280;5404;42.656;23.336;2024-01-30T05:58:49;96736.75;;;-2.99;64.62
10706;BME280;5404;42.656;23.336;2024-01-30T06:01:18;96730.31;;;-2.98;64.50
10706;BME280;5404;42.656;23.336;2024-01-30T06:03:43;96735.16;;;-3.05;64.88
10706;BME280;5404;42.656;23.336;2024-01-30T06:06:09;96739.50;;;-3.14;65.11
10706;BME280;5404;42.656;23.336;2024-01-30T06:08:34;96730.19;;;-3.17;64.92
10706;BME280;5404;42.656;23.336;2024-01-30T06:11:00;96730.44;;;-3.18;65.45
10706;BME280;5404;42.656;23.336;2024-01-30T06:13:26;96743.78;;;-3.13;65.69
10706;BME280;5404;42.656;23.336;2024-01-30T06:15:52;96738.41;;;-3.08;66.16
10706;BME280;5404;42.656;23.336;2024-01-30T06:18:17;96743.16;;;-3.00;65.77
10706;BME280;5404;42.656;23.336;2024-01-30T06:20:43;96748.72;;;-2.96;65.84
10706;BME280;5404;42.656;23.336;2024-01-30T06:23:08;96752.16;;;-2.91;65.95
10706;BME280;5404;42.656;23.336;2024-01-30T06:25:34;96747.34;;;-2.89;65.74
10706;BME280;5404;42.656;23.336;2024-01-30T06:27:59;96706.44;;;-3.13;65.77
10706;BME280;5404;42.656;23.336;2024-01-30T06:30:25;96747.88;;;-2.87;65.67
10706;BME280;5404;42.656;23.336;2024-01-30T06:32:50;96742.50;;;-2.82;65.51
10706;BME280;5404;42.656;23.336;2024-01-30T06:35:15;96741.16;;;-2.84;65.61
10706;BME280;5404;42.656;23.336;2024-01-30T06:37:42;96753.16;;;-2.82;66.37
10706;BME280;5404;42.656;23.336;2024-01-30T06:40:08;96739.63;;;-2.90;65.72
10706;BME280;5404;42.656;23.336;2024-01-30T06:42:34;96752.69;;;-2.89;65.79
10706;BME280;5404;42.656;23.336;2024-01-30T06:44:59;96744.38;;;-2.82;64.49
10706;BME280;5404;42.656;23.336;2024-01-30T06:47:24;96748.84;;;-2.72;64.02
10706;BME280;5404;42.656;23.336;2024-01-30T06:49:50;96751.72;;;-2.64;63.29
10706;BME280;5404;42.656;23.336;2024-01-30T06:52:15;96750.94;;;-2.69;64.62
10706;BME280;5404;42.656;23.336;2024-01-30T06:54:41;96752.44;;;-2.53;64.68
10706;BME280;5404;42.656;23.336;2024-01-30T06:57:06;96748.84;;;-2.39;64.87
10706;BME280;5404;42.656;23.336;2024-01-30T06:59:37;96749.28;;;-2.26;63.63
10706;BME280;5404;42.656;23.336;2024-01-30T07:02:07;96751.88;;;-2.16;62.62
10706;BME280;5404;42.656;23.336;2024-01-30T07:04:33;96751.00;;;-2.07;61.82
10706;BME280;5404;42.656;23.336;2024-01-30T07:06:58;96758.34;;;-1.93;59.67
10706;BME280;5404;42.656;23.336;2024-01-30T07:09:24;96760.88;;;-1.78;60.13
10706;BME280;5404;42.656;23.336;2024-01-30T07:11:49;96762.88;;;-1.65;58.46
10706;BME280;5404;42.656;23.336;2024-01-30T07:14:15;96765.25;;;-1.64;57.16
10706;BME280;5404;42.656;23.336;2024-01-30T07:16:40;96762.28;;;-1.62;57.67
10706;BME280;5404;42.656;23.336;2024-01-30T07:19:05;96768.09;;;-1.55;57.22
10706;BME280;5404;42.656;23.336;2024-01-30T07:21:31;96763.78;;;-1.51;55.00
10706;BME280;5404;42.656;23.336;2024-01-30T07:23:57;96773.41;;;-1.50;54.41
10706;BME280;5404;42.656;23.336;2024-01-30T07:26:22;96771.53;;;-1.49;53.75
10706;BME280;5404;42.656;23.336;2024-01-30T07:28:48;96777.97;;;-1.32;54.23
10706;BME280;5404;42.656;23.336;2024-01-30T07:31:13;96773.78;;;-1.14;54.55
10706;BME280;5404;42.656;23.336;2024-01-30T07:33:39;96775.69;;;-1.20;53.89
10706;BME280;5404;42.656;23.336;2024-01-30T07:36:04;96752.50;;;-1.24;53.05
10706;BME280;5404;42.656;23.336;2024-01-30T07:38:33;96776.38;;;-1.09;52.91
10706;BME280;5404;42.656;23.336;2024-01-30T07:40:59;96774.09;;;-1.21;53.10
10706;BME280;5404;42.656;23.336;2024-01-30T07:43:24;96769.00;;;-1.17;53.17
10706;BME280;5404;42.656;23.336;2024-01-30T07:45:50;96762.44;;;-0.87;52.86
10706;BME280;5404;42.656;23.336;2024-01-30T07:48:15;96758.34;;;-0.80;53.51
10706;BME280;5404;42.656;23.336;2024-01-30T07:50:40;96771.41;;;-0.97;52.11
10706;BME280;5404;42.656;23.336;2024-01-30T07:53:06;96771.22;;;-1.05;52.33
10706;BME280;5404;42.656;23.336;2024-01-30T07:55:32;96767.81;;;-0.87;52.27
10706;BME280;5404;42.656;23.336;2024-01-30T07:57:58;96754.63;;;-1.02;51.90
10706;BME280;5404;42.656;23.336;2024-01-30T08:00:26;96771.72;;;-0.80;52.84
10706;BME280;5404;42.656;23.336;2024-01-30T08:02:52;96759.31;;;-0.57;53.07
10706;BME280;5404;42.656;23.336;2024-01-30T08:05:19;96771.34;;;-0.54;51.71
10706;BME280;5404;42.656;23.336;2024-01-30T08:07:48;96765.41;;;-0.51;51.32
10706;BME280;5404;42.656;23.336;2024-01-30T08:10:14;96770.31;;;-0.40;51.16
10706;BME280;5404;42.656;23.336;2024-01-30T08:12:39;96761.09;;;-0.33;50.99
10706;BME280;5404;42.656;23.336;2024-01-30T08:15:05;96759.28;;;-0.19;50.86
10706;BME280;5404;42.656;23.336;2024-01-30T08:17:31;96763.53;;;-0.18;50.39
10706;BME280;5404;42.656;23.336;2024-01-30T08:19:56;96766.47;;;-0.33;50.70
10706;BME280;5404;42.656;23.336;2024-01-30T08:22:22;96763.88;;;-0.38;50.50
10706;BME280;5404;42.656;23.336;2024-01-30T08:24:47;96761.78;;;-0.09;50.94
10706;BME280;5404;42.656;23.336;2024-01-30T08:27:13;96761.28;;;-0.11;50.71
10706;BME280;5404;42.656;23.336;2024-01-30T08:29:38;96754.69;;;0.00;50.93
10706;BME280;5404;42.656;23.336;2024-01-30T08:32:05;96765.22;;;0.10;50.26
10706;BME280;5404;42.656;23.336;2024-01-30T08:34:31;96769.81;;;0.23;50.46
10706;BME280;5404;42.656;23.336;2024-01-30T08:36:56;96779.75;;;0.36;49.75
10706;BME280;5404;42.656;23.336;2024-01-30T08:39:21;96772.91;;;0.30;48.91
10706;BME280;5404;42.656;23.336;2024-01-30T08:41:47;96779.03;;;0.17;48.93
10706;BME280;5404;42.656;23.336;2024-01-30T08:44:12;96784.28;;;0.22;49.43
10706;BME280;5404;42.656;23.336;2024-01-30T08:46:38;96787.06;;;0.17;48.97
10706;BME280;5404;42.656;23.336;2024-01-30T08:49:03;96789.38;;;0.37;49.13
10706;BME280;5404;42.656;23.336;2024-01-30T08:51:31;96794.38;;;0.58;48.55
10706;BME280;5404;42.656;23.336;2024-01-30T08:53:57;96789.63;;;0.82;48.01
10706;BME280;5404;42.656;23.336;2024-01-30T08:56:22;96794.09;;;0.73;47.41
10706;BME280;5404;42.656;23.336;2024-01-30T08:58:48;96788.31;;;0.52;47.83
10706;BME280;5404;42.656;23.336;2024-01-30T09:01:14;96795.38;;;1.03;48.11
10706;BME280;5404;42.656;23.336;2024-01-30T09:03:39;96796.47;;;0.88;47.46
10706;BME280;5404;42.656;23.336;2024-01-30T09:06:10;96794.69;;;1.11;48.19
10706;BME280;5404;42.656;23.336;2024-01-30T09:08:35;96798.22;;;2.36;46.67
10706;BME280;5404;42.656;23.336;2024-01-30T09:11:00;96792.44;;;3.74;42.18
10706;BME280;5404;42.656;23.336;2024-01-30T09:13:26;96806.00;;;5.60;39.27
10706;BME280;5404;42.656;23.336;2024-01-30T09:15:51;96811.13;;;6.81;36.48
10706;BME280;5404;42.656;23.336;2024-01-30T09:18:18;96811.59;;;5.76;37.49
10706;BME280;5404;42.656;23.336;2024-01-30T09:20:43;96803.66;;;3.41;39.64
10706;BME280;5404;42.656;23.336;2024-01-30T09:23:12;96791.78;;;3.77;40.95
10706;BME280;5404;42.656;23.336;2024-01-30T09:25:38;96783.97;;;4.36;40.00
10706;BME280;5404;42.656;23.336;2024-01-30T09:28:03;96793.56;;;5.09;38.21
10706;BME280;5404;42.656;23.336;2024-01-30T09:30:29;96794.00;;;7.01;35.32
10706;BME280;5404;42.656;23.336;2024-01-30T09:32:54;96798.78;;;5.64;36.93
10706;BME280;5404;42.656;23.336;2024-01-30T09:35:20;96756.66;;;5.13;38.26
10706;BME280;5404;42.656;23.336;2024-01-30T09:37:45;96789.38;;;7.14;35.64
10706;BME280;5404;42.656;23.336;2024-01-30T09:40:10;96798.38;;;8.07;33.40
10706;BME280;5404;42.656;23.336;2024-01-30T09:42:36;96781.41;;;9.28;32.77
10706;BME280;5404;42.656;23.336;2024-01-30T09:45:03;96800.53;;;10.37;30.17
10706;BME280;5404;42.656;23.336;2024-01-30T09:47:32;96802.09;;;10.18;31.02
10706;BME280;5404;42.656;23.336;2024-01-30T09:50:02;96801.41;;;9.36;31.27
10706;BME280;5404;42.656;23.336;2024-01-30T09:52:28;96800.22;;;7.02;34.50
10706;BME280;5404;42.656;23.336;2024-01-30T09:54:54;96800.41;;;6.07;37.26
10706;BME280;5404;42.656;23.336;2024-01-30T09:57:19;96782.22;;;6.28;37.38
10706;BME280;5404;42.656;23.336;2024-01-30T09:59:47;96777.31;;;6.09;37.15
10706;BME280;5404;42.656;23.336;2024-01-30T10:02:13;96782.69;;;6.99;36.80
10706;BME280;5404;42.656;23.336;2024-01-30T10:04:38;96770.66;;;7.73;34.43
10706;BME280;5404;42.656;23.336;2024-01-30T10:07:05;96771.84;;;9.03;32.68
10706;BME280;5404;42.656;23.336;2024-01-30T10:09:34;96767.28;;;7.64;34.32
10706;BME280;5404;42.656;23.336;2024-01-30T10:12:02;96771.88;;;7.24;35.64
10706;BME280;5404;42.656;23.336;2024-01-30T10:14:29;96758.28;;;7.12;35.40
10706;BME280;5404;42.656;23.336;2024-01-30T10:16:55;96769.31;;;5.71;37.75
10706;BME280;5404;42.656;23.336;2024-01-30T10:19:21;96761.22;;;4.54;40.03
10706;BME280;5404;42.656;23.336;2024-01-30T10:21:46;96755.06;;;6.04;38.33
10706;BME280;5404;42.656;23.336;2024-01-30T10:24:11;96756.72;;;8.43;34.39
10706;BME280;5404;42.656;23.336;2024-01-30T10:26:39;96761.09;;;9.76;32.75
10706;BME280;5404;42.656;23.336;2024-01-30T10:29:05;96772.38;;;9.59;31.71
10706;BME280;5404;42.656;23.336;2024-01-30T10:31:31;96763.00;;;8.90;33.25
10706;BME280;5404;42.656;23.336;2024-01-30T10:33:56;96772.53;;;7.21;34.19
10706;BME280;5404;42.656;23.336;2024-01-30T10:36:26;96767.47;;;5.13;37.80
10706;BME280;5404;42.656;23.336;2024-01-30T10:38:55;96767.06;;;4.64;39.12
10706;BME280;5404;42.656;23.336;2024-01-30T10:41:27;96740.25;;;7.16;36.82
10706;BME280;5404;42.656;23.336;2024-01-30T10:44:02;96761.63;;;9.47;31.94
10706;BME280;5404;42.656;23.336;2024-01-30T10:46:33;96759.03;;;8.29;32.27
10706;BME280;5404;42.656;23.336;2024-01-30T10:49:00;96765.78;;;6.12;37.20
10706;BME280;5404;42.656;23.336;2024-01-30T10:51:27;96758.53;;;4.54;39.46
10706;BME280;5404;42.656;23.336;2024-01-30T10:53:55;96741.56;;;3.55;41.35
10706;BME280;5404;42.656;23.336;2024-01-30T10:56:21;96718.38;;;3.80;41.32
10706;BME280;5404;42.656;23.336;2024-01-30T10:58:51;96728.81;;;3.21;42.82
10706;BME280;5404;42.656;23.336;2024-01-30T11:01:22;96714.13;;;3.44;43.02
10706;BME280;5404;42.656;23.336;2024-01-30T11:03:51;96717.81;;;4.67;39.58
10706;BME280;5404;42.656;23.336;2024-01-30T11:06:17;96716.28;;;5.17;38.89
10706;BME280;5404;42.656;23.336;2024-01-30T11:09:03;96715.91;;;5.68;38.43
10706;BME280;5404;42.656;23.336;2024-01-30T11:12:11;96717.94;;;5.50;38.59
10706;BME280;5404;42.656;23.336;2024-01-30T11:14:38;96713.59;;;4.03;41.33
10706;BME280;5404;42.656;23.336;2024-01-30T11:17:09;96715.44;;;4.95;40.45
10706;BME280;5404;42.656;23.336;2024-01-30T11:19:37;96716.13;;;4.54;40.92
10706;BME280;5404;42.656;23.336;2024-01-30T11:22:02;96701.53;;;3.91;41.89
10706;BME280;5404;42.656;23.336;2024-01-30T11:24:28;96705.69;;;3.20;43.34
10706;BME280;5404;42.656;23.336;2024-01-30T11:26:57;96701.75;;;3.43;43.83
10706;BME280;5404;42.656;23.336;2024-01-30T11:29:30;96700.81;;;3.39;43.52
10706;BME280;5404;42.656;23.336;2024-01-30T11:31:56;96703.81;;;3.38;44.96
10706;BME280;5404;42.656;23.336;2024-01-30T11:34:24;96693.91;;;2.82;45.64
10706;BME280;5404;42.656;23.336;2024-01-30T11:36:57;96688.16;;;2.57;44.75
10706;BME280;5404;42.656;23.336;2024-01-30T11:39:27;96684.78;;;2.43;45.63
10706;BME280;5404;42.656;23.336;2024-01-30T11:41:53;96685.53;;;1.95;46.16
10706;BME280;5404;42.656;23.336;2024-01-30T11:44:20;96702.44;;;1.96;47.36
10706;BME280;5404;42.656;23.336;2024-01-30T11:46:47;96677.25;;;1.92;47.31
10706;BME280;5404;42.656;23.336;2024-01-30T11:49:13;96685.28;;;2.06;47.50
10706;BME280;5404;42.656;23.336;2024-01-30T11:51:39;96692.00;;;1.94;47.31
10706;BME280;5404;42.656;23.336;2024-01-30T11:54:04;96677.97;;;3.11;45.78
10706;BME280;5404;42.656;23.336;2024-01-30T11:56:29;96692.84;;;3.34;44.13
10706;BME280;5404;42.656;23.336;2024-01-30T11:58:55;96687.28;;;3.82;43.43
10706;BME280;5404;42.656;23.336;2024-01-30T12:01:21;96683.63;;;5.42;39.94
10706;BME280;5404;42.656;23.336;2024-01-30T12:03:50;96694.16;;;8.71;34.97
10706;BME280;5404;42.656;23.336;2024-01-30T12:06:15;96698.31;;;10.69;30.84
10706;BME280;5404;42.656;23.336;2024-01-30T12:08:41;96705.72;;;8.83;32.32
10706;BME280;5404;42.656;23.336;2024-01-30T12:11:07;96692.91;;;7.65;34.60
10706;BME280;5404;42.656;23.336;2024-01-30T12:13:33;96693.03;;;9.76;32.11
10706;BME280;5404;42.656;23.336;2024-01-30T12:15:59;96687.28;;;10.85;30.22
10706;BME280;5404;42.656;23.336;2024-01-30T12:18:25;96688.50;;;7.61;34.57
10706;BME280;5404;42.656;23.336;2024-01-30T12:20:59;96679.72;;;9.91;32.33
10706;BME280;5404;42.656;23.336;2024-01-30T12:23:26;96677.78;;;9.91;31.66
10706;BME280;5404;42.656;23.336;2024-01-30T12:25:52;96686.34;;;8.69;32.73
10706;BME280;5404;42.656;23.336;2024-01-30T12:28:19;96684.44;;;9.55;32.06
10706;BME280;5404;42.656;23.336;2024-01-30T12:30:45;96671.78;;;10.43;31.73
10706;BME280;5404;42.656;23.336;2024-01-30T12:33:16;96660.31;;;10.80;30.32
10706;BME280;5404;42.656;23.336;2024-01-30T12:35:46;96668.69;;;8.59;32.24
10706;BME280;5404;42.656;23.336;2024-01-30T12:38:13;96662.50;;;8.47;33.97
10706;BME280;5404;42.656;23.336;2024-01-30T12:40:39;96661.13;;;7.66;34.20
10706;BME280;5404;42.656;23.336;2024-01-30T12:43:04;96660.84;;;6.30;36.46
10706;BME280;5404;42.656;23.336;2024-01-30T12:45:30;96654.25;;;4.70;39.65
10706;BME280;5404;42.656;23.336;2024-01-30T12:47:56;96633.81;;;3.93;40.83
10706;BME280;5404;42.656;23.336;2024-01-30T12:50:21;96623.94;;;3.33;44.16
10706;BME280;5404;42.656;23.336;2024-01-30T12:52:47;96628.06;;;3.31;42.70
10706;BME280;5404;42.656;23.336;2024-01-30T12:55:13;96598.41;;;2.70;43.38
10706;BME280;5404;42.656;23.336;2024-01-30T12:57:38;96600.59;;;2.34;45.07